createdAt,value
2023-06-01T00:00:35.752Z,0.67
2023-06-01T00:01:35.712Z,0.67
2023-06-01T00:02:35.785Z,0.67
2023-06-01T00:03:35.707Z,0.68
2023-06-01T00:04:35.668Z,0.66
2023-06-01T00:05:35.578Z,0.66
2023-06-01T00:06:35.549Z,0.68
2023-06-01T00:07:35.518Z,0.68
2023-06-01T00:08:35.719Z,0.67
2023-06-01T00:09:35.461Z,0.67
2023-06-01T00:10:35.422Z,0.67
2023-06-01T00:11:35.394Z,0.67
2023-06-01T00:12:35.364Z,0.68
2023-06-01T00:13:35.378Z,0.66
2023-06-01T00:14:35.282Z,0.65
2023-06-01T00:15:35.259Z,0.66
2023-06-01T00:16:35.238Z,0.67
2023-06-01T00:17:35.237Z,0.67
2023-06-01T00:18:35.168Z,0.67
2023-06-01T00:19:35.146Z,0.68
2023-06-01T00:20:35.124Z,0.66
2023-06-01T00:21:35.107Z,0.66
2023-06-01T00:22:35.068Z,0.67
2023-06-01T00:23:35.030Z,0.66
2023-06-01T00:24:34.998Z,0.67
2023-06-01T00:25:35.048Z,0.66
2023-06-01T00:26:34.951Z,0.66
2023-06-01T00:27:34.916Z,0.66
2023-06-01T00:28:34.894Z,0.66
2023-06-01T00:29:34.863Z,0.66
2023-06-01T00:30:34.820Z,0.67
2023-06-01T00:31:34.862Z,0.66
2023-06-01T00:32:34.869Z,0.66
2023-06-01T00:33:34.760Z,0.66
2023-06-01T00:34:34.756Z,0.67
2023-06-01T00:35:34.675Z,0.66
2023-06-01T00:36:34.640Z,0.65
2023-06-01T00:37:34.713Z,0.67
2023-06-01T00:38:34.592Z,0.65
2023-06-01T00:39:34.556Z,0.66
2023-06-01T00:40:34.531Z,0.68
2023-06-01T00:41:34.538Z,0.66
2023-06-01T00:42:34.478Z,0.66
2023-06-01T00:43:34.441Z,0.64
2023-06-01T00:44:34.423Z,0.68
2023-06-01T00:45:34.386Z,0.65
2023-06-01T00:46:34.366Z,0.66
2023-06-01T00:47:34.372Z,0.65
2023-06-01T00:48:34.380Z,0.67
2023-06-01T00:49:35.304Z,0.67
2023-06-01T00:50:34.264Z,0.67
2023-06-01T00:51:34.218Z,0.66
2023-06-01T00:52:34.190Z,0.64
2023-06-01T00:53:34.173Z,0.66
2023-06-01T00:54:34.142Z,0.65
2023-06-01T00:55:34.198Z,0.66
2023-06-01T00:56:34.101Z,0.66
2023-06-01T00:57:34.143Z,0.65
2023-06-01T00:58:34.034Z,0.65
2023-06-01T00:59:34.026Z,0.65
2023-06-01T01:00:33.985Z,0.65
2023-06-01T01:01:34.015Z,0.65
2023-06-01T01:02:33.984Z,0.66
2023-06-01T01:03:33.907Z,0.66
2023-06-01T01:04:33.949Z,0.66
2023-06-01T01:05:33.864Z,0.66
2023-06-01T01:06:33.843Z,0.66
2023-06-01T01:07:33.826Z,0.66
2023-06-01T01:08:33.788Z,0.65
2023-06-01T01:09:33.760Z,0.65
2023-06-01T01:10:33.757Z,0.66
2023-06-01T01:11:33.715Z,0.65
2023-06-01T01:12:33.707Z,0.65
2023-06-01T01:13:33.653Z,0.65
2023-06-01T01:14:33.633Z,0.65
2023-06-01T01:15:33.636Z,0.66
2023-06-01T01:16:33.608Z,0.66
2023-06-01T01:17:33.792Z,0.65
2023-06-01T01:18:33.627Z,0.67
2023-06-01T01:19:33.550Z,0.65
2023-06-01T01:20:33.487Z,0.64
2023-06-01T01:21:33.496Z,0.66
2023-06-01T01:22:33.456Z,0.66
2023-06-01T01:23:33.424Z,0.64
2023-06-01T01:24:33.398Z,0.66
2023-06-01T01:25:33.367Z,0.66
2023-06-01T01:26:33.399Z,0.64
2023-06-01T01:27:33.320Z,0.65
2023-06-01T01:28:33.317Z,0.64
2023-06-01T01:29:33.269Z,0.65
2023-06-01T01:30:33.247Z,0.64
2023-06-01T01:31:33.365Z,0.65
2023-06-01T01:32:33.242Z,0.65
2023-06-01T01:33:33.204Z,0.65
2023-06-01T01:34:33.190Z,0.65
2023-06-01T01:35:33.148Z,0.64
2023-06-01T01:36:33.130Z,0.65
2023-06-01T01:37:33.118Z,0.65
2023-06-01T01:38:33.108Z,0.66
2023-06-01T01:39:33.079Z,0.67
2023-06-01T01:40:33.071Z,0.65
2023-06-01T01:41:33.049Z,0.65
2023-06-01T01:42:33.065Z,0.65
2023-06-01T01:43:33.086Z,0.66
2023-06-01T01:44:33.000Z,0.64
2023-06-01T01:45:32.967Z,0.64
2023-06-01T01:46:33.002Z,0.65
2023-06-01T01:47:33.881Z,0.65
2023-06-01T01:48:32.905Z,0.64
2023-06-01T01:49:32.911Z,0.65
2023-06-01T01:50:32.880Z,0.65
2023-06-01T01:51:32.864Z,0.65
2023-06-01T01:52:32.824Z,0.64
2023-06-01T01:53:32.802Z,0.64
2023-06-01T01:54:32.782Z,0.65
2023-06-01T01:55:32.764Z,0.65
2023-06-01T01:56:32.761Z,0.65
2023-06-01T01:57:32.721Z,0.65
2023-06-01T01:58:32.758Z,0.64
2023-06-01T01:59:32.677Z,0.64
2023-06-01T02:00:32.670Z,0.64
2023-06-01T02:01:34.960Z,0.65
2023-06-01T02:02:32.670Z,0.66
2023-06-01T02:03:32.621Z,0.66
2023-06-01T02:04:32.472Z,0.66
2023-06-01T02:05:32.404Z,0.65
2023-06-01T02:06:32.422Z,0.65
2023-06-01T02:07:32.318Z,0.64
2023-06-01T02:08:32.219Z,0.65
2023-06-01T02:09:32.265Z,0.66
2023-06-01T02:10:32.112Z,0.66
2023-06-01T02:11:32.046Z,0.65
2023-06-01T02:12:31.985Z,0.65
2023-06-01T02:13:31.913Z,0.64
2023-06-01T02:14:31.878Z,0.65
2023-06-01T02:15:31.831Z,0.65
2023-06-01T02:16:31.765Z,0.65
2023-06-01T02:17:31.735Z,0.65
2023-06-01T02:18:31.633Z,0.64
2023-06-01T02:19:31.580Z,0.64
2023-06-01T02:20:31.523Z,0.64
2023-06-01T02:21:31.519Z,0.62
2023-06-01T02:22:31.412Z,0.65
2023-06-01T02:23:32.632Z,0.65
2023-06-01T02:24:31.288Z,0.65
2023-06-01T02:25:31.220Z,0.63
2023-06-01T02:26:31.152Z,0.65
2023-06-01T02:27:31.091Z,0.64
2023-06-01T02:28:31.030Z,0.64
2023-06-01T02:29:30.966Z,0.64
2023-06-01T02:30:30.904Z,0.64
2023-06-01T02:31:30.858Z,0.63
2023-06-01T02:32:30.816Z,0.63
2023-06-01T02:33:30.812Z,0.64
2023-06-01T02:34:30.655Z,0.63
2023-06-01T02:35:30.606Z,0.63
2023-06-01T02:36:30.527Z,0.63
2023-06-01T02:37:30.470Z,0.64
2023-06-01T02:38:30.413Z,0.64
2023-06-01T02:39:30.372Z,0.63
2023-06-01T02:40:30.305Z,0.63
2023-06-01T02:41:30.260Z,0.64
2023-06-01T02:42:30.180Z,0.63
2023-06-01T02:43:30.127Z,0.63
2023-06-01T02:44:30.075Z,0.65
2023-06-01T02:45:30.022Z,0.63
2023-06-01T02:46:30.024Z,0.65
2023-06-01T02:47:29.970Z,0.63
2023-06-01T02:48:29.869Z,0.63
2023-06-01T02:49:29.847Z,0.64
2023-06-01T02:50:29.821Z,0.63
2023-06-01T02:51:29.865Z,0.63
2023-06-01T02:52:29.797Z,0.63
2023-06-01T02:53:29.786Z,0.64
2023-06-01T02:54:29.756Z,0.62
2023-06-01T02:55:29.748Z,0.64
2023-06-01T02:56:29.725Z,0.63
2023-06-01T02:57:29.720Z,0.64
2023-06-01T02:58:29.708Z,0.64
2023-06-01T02:59:29.753Z,0.63
2023-06-01T03:00:29.676Z,0.62
2023-06-01T03:01:29.722Z,0.63
2023-06-01T03:02:29.664Z,0.63
2023-06-01T03:03:29.659Z,0.63
2023-06-01T03:04:29.683Z,0.64
2023-06-01T03:05:29.600Z,0.62
2023-06-01T03:06:29.595Z,0.64
2023-06-01T03:07:29.575Z,0.64
2023-06-01T03:08:29.565Z,0.62
2023-06-01T03:09:29.556Z,0.63
2023-06-01T03:10:29.592Z,0.63
2023-06-01T03:11:29.590Z,0.63
2023-06-01T03:12:29.551Z,0.62
2023-06-01T03:13:29.547Z,0.62
2023-06-01T03:14:29.492Z,0.61
2023-06-01T03:15:29.485Z,0.62
2023-06-01T03:16:29.515Z,0.63
2023-06-01T03:17:29.494Z,0.63
2023-06-01T03:18:29.493Z,0.62
2023-06-01T03:19:29.460Z,0.64
2023-06-01T03:20:29.440Z,0.63
2023-06-01T03:21:29.479Z,0.63
2023-06-01T03:22:29.407Z,0.62
2023-06-01T03:23:29.422Z,0.62
2023-06-01T03:24:29.553Z,0.62
2023-06-01T03:25:29.433Z,0.63
2023-06-01T03:26:29.382Z,0.62
2023-06-01T03:27:29.366Z,0.63
2023-06-01T03:28:29.366Z,0.62
2023-06-01T03:29:29.361Z,0.63
2023-06-01T03:30:29.351Z,0.62
2023-06-01T03:31:29.414Z,0.63
2023-06-01T03:32:29.371Z,0.62
2023-06-01T03:33:29.335Z,0.63
2023-06-01T03:34:29.338Z,0.62
2023-06-01T03:35:29.323Z,0.62
2023-06-01T03:36:29.328Z,0.63
2023-06-01T03:37:29.320Z,0.63
2023-06-01T03:38:29.300Z,0.63
2023-06-01T03:39:29.297Z,0.62
2023-06-01T03:40:29.290Z,0.62
2023-06-01T03:41:29.288Z,0.63
2023-06-01T03:42:29.280Z,0.62
2023-06-01T03:43:29.274Z,0.62
2023-06-01T03:44:29.272Z,0.62
2023-06-01T03:45:29.275Z,0.62
2023-06-01T03:46:29.357Z,0.62
2023-06-01T03:47:29.325Z,0.62
2023-06-01T03:48:29.267Z,0.63
2023-06-01T03:49:29.321Z,0.63
2023-06-01T03:50:29.257Z,0.61
2023-06-01T03:51:29.249Z,0.61
2023-06-01T03:52:29.224Z,0.61
2023-06-01T03:53:29.222Z,0.62
2023-06-01T03:54:29.256Z,0.61
2023-06-01T03:55:29.191Z,0.62
2023-06-01T03:56:29.179Z,0.60
2023-06-01T03:57:29.176Z,0.62
2023-06-01T03:58:29.169Z,0.61
2023-06-01T03:59:29.158Z,0.62
2023-06-01T04:00:29.147Z,0.62
2023-06-01T04:01:29.136Z,0.61
2023-06-01T04:02:29.251Z,0.61
2023-06-01T04:03:29.176Z,0.61
2023-06-01T04:04:29.119Z,0.61
2023-06-01T04:05:29.125Z,0.62
2023-06-01T04:06:29.096Z,0.61
2023-06-01T04:07:29.104Z,0.61
2023-06-01T04:08:29.082Z,0.61
2023-06-01T04:09:29.144Z,0.61
2023-06-01T04:10:29.069Z,0.61
2023-06-01T04:11:29.057Z,0.62
2023-06-01T04:12:29.052Z,0.61
2023-06-01T04:13:30.313Z,0.61
2023-06-01T04:14:29.034Z,0.60
2023-06-01T04:15:29.026Z,0.60
2023-06-01T04:16:29.037Z,0.60
2023-06-01T04:17:29.016Z,0.61
2023-06-01T04:18:29.002Z,0.61
2023-06-01T04:19:28.988Z,0.61
2023-06-01T04:20:29.051Z,0.62
2023-06-01T04:21:28.999Z,0.60
2023-06-01T04:22:28.986Z,0.60
2023-06-01T04:23:28.963Z,0.61
2023-06-01T04:24:28.947Z,0.61
2023-06-01T04:25:29.827Z,0.61
2023-06-01T04:26:28.989Z,0.61
2023-06-01T04:27:28.931Z,0.60
2023-06-01T04:28:28.980Z,0.60
2023-06-01T04:29:28.919Z,0.61
2023-06-01T04:30:28.899Z,0.61
2023-06-01T04:31:28.944Z,0.61
2023-06-01T04:32:28.953Z,0.61
2023-06-01T04:33:28.877Z,0.61
2023-06-01T04:34:28.870Z,0.61
2023-06-01T04:35:28.894Z,0.60
2023-06-01T04:36:28.849Z,0.61
2023-06-01T04:37:28.849Z,0.60
2023-06-01T04:38:28.825Z,0.62
2023-06-01T04:39:28.815Z,0.60
2023-06-01T04:40:28.812Z,0.60
2023-06-01T04:41:28.787Z,0.60
2023-06-01T04:42:28.791Z,0.60
2023-06-01T04:43:28.829Z,0.59
2023-06-01T04:44:28.736Z,0.58
2023-06-01T04:45:28.738Z,0.59
2023-06-01T04:46:28.733Z,0.59
2023-06-01T04:47:28.833Z,0.59
2023-06-01T04:48:28.818Z,0.59
2023-06-01T04:49:28.669Z,0.59
2023-06-01T04:50:28.660Z,0.59
2023-06-01T04:51:28.636Z,0.58
2023-06-01T04:52:28.618Z,0.59
2023-06-01T04:53:28.608Z,0.60
2023-06-01T04:54:28.580Z,0.59
2023-06-01T04:55:29.227Z,0.58
2023-06-01T04:56:28.544Z,0.58
2023-06-01T04:57:28.514Z,0.59
2023-06-01T04:58:28.499Z,0.57
2023-06-01T04:59:28.464Z,0.57
2023-06-01T05:00:28.445Z,0.58
2023-06-01T05:01:28.453Z,0.58
2023-06-01T05:02:28.413Z,0.57
2023-06-01T05:03:28.399Z,0.57
2023-06-01T05:04:28.424Z,0.58
2023-06-01T05:05:28.323Z,0.56
2023-06-01T05:06:28.320Z,0.56
2023-06-01T05:07:28.272Z,0.56
2023-06-01T05:08:28.241Z,0.56
2023-06-01T05:09:28.211Z,0.57
2023-06-01T05:10:28.197Z,0.57
2023-06-01T05:11:28.217Z,0.56
2023-06-01T05:12:28.203Z,0.56
2023-06-01T05:13:28.090Z,0.56
2023-06-01T05:14:28.051Z,0.56
2023-06-01T05:15:28.023Z,0.55
2023-06-01T05:16:28.022Z,0.57
2023-06-01T05:17:27.955Z,0.55
2023-06-01T05:18:27.923Z,0.55
2023-06-01T05:19:27.862Z,0.53
2023-06-01T05:20:27.838Z,0.49
2023-06-01T05:21:27.816Z,0.50
2023-06-01T05:22:27.805Z,0.50
2023-06-01T05:23:27.745Z,0.50
2023-06-01T05:24:27.710Z,0.52
2023-06-01T05:25:28.335Z,0.51
2023-06-01T05:26:27.718Z,0.51
2023-06-01T05:27:27.704Z,0.54
2023-06-01T05:28:27.703Z,0.52
2023-06-01T05:29:27.686Z,0.56
2023-06-01T05:30:27.675Z,0.57
2023-06-01T05:31:27.784Z,0.52
2023-06-01T05:32:27.660Z,0.48
2023-06-01T05:33:27.619Z,0.51
2023-06-01T05:34:27.616Z,0.55
2023-06-01T05:35:27.584Z,0.59
2023-06-01T05:36:27.554Z,0.61
2023-06-01T05:37:27.531Z,0.64
2023-06-01T05:38:27.528Z,0.68
2023-06-01T05:39:27.419Z,0.70
2023-06-01T05:40:27.365Z,0.72
2023-06-01T05:41:27.306Z,0.77
2023-06-01T05:42:27.242Z,0.83
2023-06-01T05:43:27.184Z,0.87
2023-06-01T05:44:27.154Z,0.95
2023-06-01T05:45:27.141Z,1.02
2023-06-01T05:46:27.175Z,1.07
2023-06-01T05:47:27.180Z,1.20
2023-06-01T05:48:27.149Z,1.26
2023-06-01T05:49:27.148Z,1.31
2023-06-01T05:50:27.151Z,1.42
2023-06-01T05:51:27.150Z,1.52
2023-06-01T05:52:27.147Z,1.58
2023-06-01T05:53:27.148Z,1.73
2023-06-01T05:54:27.146Z,1.83
2023-06-01T05:55:27.124Z,1.97
2023-06-01T05:56:27.133Z,2.10
2023-06-01T05:57:27.794Z,2.30
2023-06-01T05:58:27.089Z,2.42
2023-06-01T05:59:27.161Z,2.65
2023-06-01T06:00:27.089Z,2.86
2023-06-01T06:01:27.044Z,3.05
2023-06-01T06:02:27.111Z,3.27
2023-06-01T06:03:27.196Z,3.41
2023-06-01T06:04:27.131Z,3.70
2023-06-01T06:05:26.998Z,3.81
2023-06-01T06:06:26.986Z,4.09
2023-06-01T06:07:26.968Z,4.41
2023-06-01T06:08:26.957Z,4.51
2023-06-01T06:09:26.946Z,4.83
2023-06-01T06:10:26.934Z,4.99
2023-06-01T06:11:26.908Z,5.26
2023-06-01T06:12:26.881Z,5.94
2023-06-01T06:13:26.885Z,6.35
2023-06-01T06:14:26.884Z,6.59
2023-06-01T06:15:26.841Z,6.90
2023-06-01T06:16:26.868Z,7.21
2023-06-01T06:17:26.839Z,7.89
2023-06-01T06:18:26.781Z,8.22
2023-06-01T06:19:26.729Z,8.71
2023-06-01T06:20:26.710Z,9.50
2023-06-01T06:21:26.679Z,10.08
2023-06-01T06:22:27.365Z,10.49
2023-06-01T06:23:26.744Z,10.44
2023-06-01T06:24:26.639Z,10.53
2023-06-01T06:25:26.623Z,11.04
2023-06-01T06:26:26.657Z,10.44
2023-06-01T06:27:27.301Z,9.53
2023-06-01T06:28:26.587Z,9.55
2023-06-01T06:29:26.587Z,8.19
2023-06-01T06:30:26.598Z,4.89
2023-06-01T06:31:26.701Z,3.37
2023-06-01T06:32:26.788Z,2.19
2023-06-01T06:33:26.654Z,1.59
2023-06-01T06:34:26.493Z,1.27
2023-06-01T06:35:26.442Z,0.96
2023-06-01T06:36:26.391Z,0.75
2023-06-01T06:37:26.333Z,0.60
2023-06-01T06:38:26.331Z,0.50
2023-06-01T06:39:26.249Z,0.49
2023-06-01T06:40:26.225Z,0.52
2023-06-01T06:41:26.184Z,0.49
2023-06-01T06:42:26.141Z,0.52
2023-06-01T06:43:26.104Z,0.48
2023-06-01T06:44:26.068Z,0.50
2023-06-01T06:45:26.038Z,0.58
2023-06-01T06:46:26.048Z,0.50
2023-06-01T06:47:26.110Z,0.50
2023-06-01T06:48:26.378Z,0.51
2023-06-01T06:49:25.889Z,0.52
2023-06-01T06:50:25.838Z,0.60
2023-06-01T06:51:25.805Z,0.50
2023-06-01T06:52:25.765Z,0.52
2023-06-01T06:53:25.723Z,0.59
2023-06-01T06:54:26.388Z,0.59
2023-06-01T06:55:25.636Z,0.72
2023-06-01T06:56:26.296Z,0.69
2023-06-01T06:57:25.587Z,0.56
2023-06-01T06:58:25.544Z,0.50
2023-06-01T06:59:25.591Z,0.53
2023-06-01T07:00:25.475Z,0.50
2023-06-01T07:01:25.471Z,0.50
2023-06-01T07:02:25.421Z,0.53
2023-06-01T07:03:25.530Z,0.50
2023-06-01T07:04:26.304Z,0.52
2023-06-01T07:05:25.304Z,0.53
2023-06-01T07:06:25.276Z,0.50
2023-06-01T07:07:25.243Z,0.50
2023-06-01T07:08:26.457Z,0.51
2023-06-01T07:09:25.190Z,0.51
2023-06-01T07:10:25.150Z,0.52
2023-06-01T07:11:25.120Z,0.50
2023-06-01T07:12:25.087Z,0.52
2023-06-01T07:13:25.048Z,0.50
2023-06-01T07:14:25.018Z,0.51
2023-06-01T07:15:24.980Z,0.52
2023-06-01T07:16:24.973Z,0.54
2023-06-01T07:17:24.926Z,0.56
2023-06-01T07:18:24.875Z,0.62
2023-06-01T07:19:24.824Z,0.64
2023-06-01T07:20:24.836Z,0.75
2023-06-01T07:21:24.754Z,0.85
2023-06-01T07:22:24.682Z,0.90
2023-06-01T07:23:24.842Z,0.91
2023-06-01T07:24:25.382Z,1.00
2023-06-01T07:25:24.528Z,1.04
2023-06-01T07:26:24.512Z,1.05
2023-06-01T07:27:24.435Z,1.01
2023-06-01T07:28:24.387Z,1.04
2023-06-01T07:29:24.352Z,1.02
2023-06-01T07:30:24.277Z,1.05
2023-06-01T07:31:24.279Z,1.08
2023-06-01T07:32:24.363Z,0.99
2023-06-01T07:33:24.913Z,1.02
2023-06-01T07:34:24.103Z,1.07
2023-06-01T07:35:24.046Z,1.09
2023-06-01T07:36:23.981Z,1.12
2023-06-01T07:37:23.920Z,1.12
2023-06-01T07:38:23.929Z,1.12
2023-06-01T07:39:23.853Z,1.06
2023-06-01T07:40:23.874Z,1.07
2023-06-01T07:41:23.752Z,1.11
2023-06-01T07:42:23.735Z,1.11
2023-06-01T07:43:23.666Z,1.10
2023-06-01T07:44:23.636Z,1.12
2023-06-01T07:45:23.607Z,1.15
2023-06-01T07:46:23.638Z,1.07
2023-06-01T07:47:23.516Z,1.08
2023-06-01T07:48:23.450Z,1.10
2023-06-01T07:49:23.368Z,1.10
2023-06-01T07:50:23.402Z,1.09
2023-06-01T07:51:23.299Z,1.09
2023-06-01T07:52:23.221Z,1.05
2023-06-01T07:53:25.141Z,1.06
2023-06-01T07:54:23.144Z,1.10
2023-06-01T07:55:23.953Z,1.09
2023-06-01T07:56:23.006Z,1.12
2023-06-01T07:57:22.937Z,1.11
2023-06-01T07:58:22.886Z,1.13
2023-06-01T07:59:22.827Z,1.09
2023-06-01T08:00:22.811Z,1.15
2023-06-01T08:01:22.693Z,1.15
2023-06-01T08:02:22.799Z,1.13
2023-06-01T08:03:22.813Z,1.13
2023-06-01T08:04:22.503Z,1.09
2023-06-01T08:05:23.443Z,1.11
2023-06-01T08:06:22.380Z,1.03
2023-06-01T08:07:22.333Z,0.99
2023-06-01T08:08:22.267Z,0.99
2023-06-01T08:09:22.212Z,0.95
2023-06-01T08:10:22.152Z,0.94
2023-06-01T08:11:22.144Z,0.97
2023-06-01T08:12:22.023Z,0.99
2023-06-01T08:13:21.980Z,0.95
2023-06-01T08:14:21.981Z,0.80
2023-06-01T08:15:21.921Z,0.73
2023-06-01T08:16:21.813Z,0.60
2023-06-01T08:17:21.817Z,0.52
2023-06-01T08:18:21.689Z,0.52
2023-06-01T08:19:21.588Z,0.57
2023-06-01T08:20:21.550Z,0.51
2023-06-01T08:21:21.565Z,0.70
2023-06-01T08:22:21.406Z,0.81
2023-06-01T08:23:21.330Z,0.78
2023-06-01T08:24:21.408Z,0.90
2023-06-01T08:25:21.191Z,0.77
2023-06-01T08:26:21.125Z,0.68
2023-06-01T08:27:23.401Z,0.83
2023-06-01T08:28:21.016Z,0.83
2023-06-01T08:29:30.928Z,0.87
2023-06-01T08:30:21.863Z,0.84
2023-06-01T08:31:20.896Z,0.92
2023-06-01T08:32:20.740Z,1.08
2023-06-01T08:33:20.668Z,1.43
2023-06-01T08:34:20.599Z,2.12
2023-06-01T08:35:20.558Z,2.33
2023-06-01T08:36:20.468Z,2.42
2023-06-01T08:37:20.396Z,2.57
2023-06-01T08:38:20.391Z,2.87
2023-06-01T08:39:20.271Z,3.17
2023-06-01T08:40:20.237Z,3.55
2023-06-01T08:41:20.242Z,3.90
2023-06-01T08:42:20.246Z,4.35
2023-06-01T08:43:20.221Z,4.68
2023-06-01T08:44:20.235Z,4.97
2023-06-01T08:45:20.248Z,5.37
2023-06-01T08:46:20.276Z,5.82
2023-06-01T08:47:20.242Z,6.21
2023-06-01T08:48:22.395Z,6.67
2023-06-01T08:49:20.271Z,6.69
2023-06-01T08:50:20.124Z,6.65
2023-06-01T08:51:20.067Z,6.92
2023-06-01T08:52:20.923Z,7.53
2023-06-01T08:53:19.935Z,8.43
2023-06-01T08:54:19.860Z,9.27
2023-06-01T08:55:19.801Z,9.22
2023-06-01T08:56:19.734Z,9.61
2023-06-01T08:57:19.678Z,10.17
2023-06-01T08:58:19.609Z,10.89
2023-06-01T08:59:19.604Z,11.59
2023-06-01T09:00:19.599Z,12.09
2023-06-01T09:01:19.642Z,12.98
2023-06-01T09:02:19.671Z,13.89
2023-06-01T09:03:19.690Z,14.66
2023-06-01T09:04:19.689Z,14.97
2023-06-01T09:05:19.598Z,15.94
2023-06-01T09:06:19.607Z,16.91
2023-06-01T09:07:19.666Z,17.29
2023-06-01T09:08:19.602Z,17.96
2023-06-01T09:09:19.674Z,18.69
2023-06-01T09:10:19.620Z,17.99
2023-06-01T09:11:19.593Z,18.26
2023-06-01T09:12:19.597Z,18.73
2023-06-01T09:13:19.584Z,18.73
2023-06-01T09:14:19.579Z,19.29
2023-06-01T09:15:19.576Z,18.04
2023-06-01T09:16:19.677Z,13.71
2023-06-01T09:17:19.573Z,13.67
2023-06-01T09:18:19.572Z,12.44
2023-06-01T09:19:19.578Z,9.54
2023-06-01T09:20:19.644Z,8.36
2023-06-01T09:21:19.581Z,7.76
2023-06-01T09:22:19.600Z,7.58
2023-06-01T09:23:19.602Z,8.19
2023-06-01T09:24:19.565Z,8.76
2023-06-01T09:25:19.545Z,9.18
2023-06-01T09:26:19.540Z,9.93
2023-06-01T09:27:19.533Z,9.74
2023-06-01T09:28:19.525Z,10.07
2023-06-01T09:29:19.941Z,10.55
2023-06-01T09:30:19.562Z,10.93
2023-06-01T09:31:19.589Z,11.51
2023-06-01T09:32:19.501Z,12.56
2023-06-01T09:33:19.547Z,13.11
2023-06-01T09:34:19.525Z,14.17
2023-06-01T09:35:19.476Z,15.07
2023-06-01T09:36:19.474Z,16.17
2023-06-01T09:37:20.436Z,17.82
2023-06-01T09:38:19.445Z,18.75
2023-06-01T09:39:19.451Z,20.30
2023-06-01T09:40:19.647Z,20.50
2023-06-01T09:41:19.407Z,21.98
2023-06-01T09:42:19.424Z,22.01
2023-06-01T09:43:19.370Z,22.87
2023-06-01T09:44:19.350Z,24.43
2023-06-01T09:45:19.339Z,25.18
2023-06-01T09:46:19.301Z,26.32
2023-06-01T09:47:19.318Z,28.41
2023-06-01T09:48:19.286Z,29.82
2023-06-01T09:49:19.271Z,31.08
2023-06-01T09:50:19.223Z,33.45
2023-06-01T09:51:19.204Z,34.89
2023-06-01T09:52:19.197Z,36.16
2023-06-01T09:53:19.160Z,38.06
2023-06-01T09:54:19.144Z,38.24
2023-06-01T09:55:19.168Z,39.89
2023-06-01T09:56:19.085Z,40.08
2023-06-01T09:57:19.079Z,39.42
2023-06-01T09:58:19.181Z,40.79
2023-06-01T09:59:19.030Z,41.81
2023-06-01T10:00:19.000Z,42.75
2023-06-01T10:01:18.995Z,43.89
2023-06-01T10:02:19.010Z,44.83
2023-06-01T10:03:19.092Z,45.38
2023-06-01T10:04:18.888Z,46.39
2023-06-01T10:05:18.921Z,49.19
2023-06-01T10:06:18.817Z,50.35
2023-06-01T10:07:18.798Z,51.01
2023-06-01T10:08:18.753Z,53.39
2023-06-01T10:09:18.712Z,56.22
2023-06-01T10:10:18.670Z,58.61
2023-06-01T10:11:18.642Z,62.93
2023-06-01T10:12:18.646Z,62.82
2023-06-01T10:13:18.580Z,65.23
2023-06-01T10:14:18.556Z,65.29
2023-06-01T10:15:30.494Z,67.54
2023-06-01T10:16:19.477Z,67.64
2023-06-01T10:17:18.381Z,67.73
2023-06-01T10:18:18.399Z,68.04
2023-06-01T10:19:18.227Z,68.96
2023-06-01T10:20:18.168Z,69.43
2023-06-01T10:21:18.209Z,70.46
2023-06-01T10:22:18.015Z,70.61
2023-06-01T10:23:29.810Z,70.84
2023-06-01T10:24:18.943Z,70.99
2023-06-01T10:25:17.787Z,71.16
2023-06-01T10:26:17.716Z,72.10
2023-06-01T10:27:17.650Z,72.95
2023-06-01T10:28:17.580Z,72.81
2023-06-01T10:29:17.530Z,72.27
2023-06-01T10:30:17.497Z,73.65
2023-06-01T10:31:17.389Z,72.15
2023-06-01T10:32:17.294Z,72.12
2023-06-01T10:33:22.754Z,71.61
2023-06-01T10:34:18.273Z,71.72
2023-06-01T10:35:17.112Z,71.99
2023-06-01T10:36:17.961Z,72.41
2023-06-01T10:37:17.001Z,71.56
2023-06-01T10:38:16.900Z,73.37
2023-06-01T10:39:16.824Z,72.43
2023-06-01T10:40:16.846Z,71.31
2023-06-01T10:41:16.673Z,71.50
2023-06-01T10:42:16.612Z,70.10
2023-06-01T10:43:16.560Z,68.76
2023-06-01T10:44:16.548Z,68.48
2023-06-01T10:45:16.531Z,67.78
2023-06-01T10:46:16.687Z,68.52
2023-06-01T10:47:16.505Z,67.24
2023-06-01T10:48:16.493Z,67.67
2023-06-01T10:49:16.484Z,66.07
2023-06-01T10:50:16.470Z,66.95
2023-06-01T10:51:16.483Z,64.99
2023-06-01T10:52:16.451Z,64.73
2023-06-01T10:53:16.448Z,63.65
2023-06-01T10:54:16.437Z,62.40
2023-06-01T10:55:16.478Z,64.00
2023-06-01T10:56:16.416Z,62.39
2023-06-01T10:57:16.402Z,62.44
2023-06-01T10:58:16.396Z,61.73
2023-06-01T10:59:19.468Z,61.84
2023-06-01T11:00:16.831Z,61.86
2023-06-01T11:01:16.268Z,62.04
2023-06-01T11:02:16.101Z,61.75
2023-06-01T11:03:16.228Z,59.46
2023-06-01T11:04:16.354Z,60.14
2023-06-01T11:05:15.904Z,58.66
2023-06-01T11:06:15.827Z,58.13
2023-06-01T11:07:15.732Z,57.71
2023-06-01T11:08:15.710Z,58.80
2023-06-01T11:09:15.664Z,56.12
2023-06-01T11:10:15.588Z,56.29
2023-06-01T11:11:15.471Z,55.26
2023-06-01T11:12:15.375Z,54.14
2023-06-01T11:13:15.301Z,53.29
2023-06-01T11:14:15.311Z,53.25
2023-06-01T11:15:15.158Z,53.15
2023-06-01T11:16:15.147Z,52.83
2023-06-01T11:17:15.020Z,52.96
2023-06-01T11:18:14.944Z,52.38
2023-06-01T11:19:14.867Z,53.38
2023-06-01T11:20:14.853Z,54.85
2023-06-01T11:21:16.140Z,59.27
2023-06-01T11:22:14.884Z,60.72
2023-06-01T11:23:14.868Z,59.42
2023-06-01T11:24:14.821Z,59.64
2023-06-01T11:25:14.798Z,57.85
2023-06-01T11:26:14.793Z,56.82
2023-06-01T11:27:14.798Z,58.90
2023-06-01T11:28:14.774Z,51.37
2023-06-01T11:29:14.770Z,40.43
2023-06-01T11:30:14.824Z,33.99
2023-06-01T11:31:14.792Z,25.32
2023-06-01T11:32:14.741Z,22.71
2023-06-01T11:33:14.846Z,16.16
2023-06-01T11:34:14.994Z,16.46
2023-06-01T11:35:14.702Z,17.09
2023-06-01T11:36:14.697Z,17.70
2023-06-01T11:37:14.664Z,17.81
2023-06-01T11:38:14.662Z,15.69
2023-06-01T11:39:20.728Z,7.05
2023-06-01T11:40:15.488Z,3.73
2023-06-01T11:41:14.407Z,2.59
2023-06-01T11:42:14.361Z,3.28
2023-06-01T11:43:14.276Z,3.80
2023-06-01T11:44:14.989Z,4.18
2023-06-01T11:45:14.153Z,2.88
2023-06-01T11:47:14.139Z,1.13
2023-06-01T11:48:14.026Z,1.01
2023-06-01T11:49:13.897Z,0.78
2023-06-01T11:50:13.873Z,0.55
2023-06-01T11:51:13.759Z,0.44
2023-06-01T11:52:13.714Z,0.46
2023-06-01T11:53:13.634Z,0.50
2023-06-01T11:54:13.567Z,0.74
2023-06-01T11:55:13.532Z,1.04
2023-06-01T11:56:13.438Z,1.58
2023-06-01T11:57:13.399Z,1.94
2023-06-01T11:58:13.375Z,1.29
2023-06-01T11:59:13.256Z,1.31
2023-06-01T12:00:13.187Z,1.50
2023-06-01T12:01:13.107Z,1.32
2023-06-01T12:02:13.058Z,1.48
2023-06-01T12:03:13.021Z,1.73
2023-06-01T12:04:13.031Z,1.67
2023-06-01T12:05:12.848Z,1.35
2023-06-01T12:06:13.420Z,0.95
2023-06-01T12:07:12.719Z,0.78
2023-06-01T12:08:12.719Z,0.61
2023-06-01T12:09:12.597Z,0.54
2023-06-01T12:10:12.590Z,0.66
2023-06-01T12:11:12.449Z,0.80
2023-06-01T12:12:12.419Z,0.94
2023-06-01T12:13:12.383Z,1.05
2023-06-01T12:14:13.747Z,1.28
2023-06-01T12:15:12.165Z,1.23
2023-06-01T12:16:21.772Z,1.50
2023-06-01T12:17:13.208Z,1.50
2023-06-01T12:18:12.063Z,1.51
2023-06-01T12:19:11.984Z,1.58
2023-06-01T12:20:11.896Z,1.58
2023-06-01T12:21:11.768Z,1.35
2023-06-01T12:22:11.726Z,1.61
2023-06-01T12:23:11.656Z,1.76
2023-06-01T12:24:12.512Z,2.01
2023-06-01T12:25:11.520Z,2.29
2023-06-01T12:26:11.447Z,2.88
2023-06-01T12:27:11.397Z,3.39
2023-06-01T12:28:11.374Z,3.83
2023-06-01T12:29:11.319Z,4.21
2023-06-01T12:30:11.328Z,4.90
2023-06-01T12:31:11.258Z,5.31
2023-06-01T12:32:11.235Z,6.14
2023-06-01T12:33:11.143Z,6.86
2023-06-01T12:35:11.005Z,7.80
2023-06-01T12:36:10.965Z,7.17
2023-06-01T12:37:10.897Z,7.22
2023-06-01T12:38:10.834Z,8.15
2023-06-01T12:39:10.789Z,8.92
2023-06-01T12:40:10.817Z,10.01
2023-06-01T12:41:10.668Z,10.13
2023-06-01T12:42:10.643Z,9.64
2023-06-01T12:43:10.590Z,10.25
2023-06-01T12:44:10.540Z,10.84
2023-06-01T12:45:10.586Z,10.20
2023-06-01T12:46:10.496Z,11.53
2023-06-01T12:47:10.427Z,6.07
2023-06-01T12:48:10.422Z,5.51
2023-06-01T12:49:10.329Z,6.70
2023-06-01T12:50:10.410Z,7.86
2023-06-01T12:51:10.223Z,8.80
2023-06-01T12:52:10.348Z,10.10
2023-06-01T12:53:10.137Z,10.95
2023-06-01T12:54:10.174Z,11.21
2023-06-01T12:55:09.989Z,11.80
2023-06-01T12:56:09.941Z,12.38
2023-06-01T12:57:09.877Z,13.13
2023-06-01T12:58:09.832Z,13.78
2023-06-01T12:59:09.764Z,12.15
2023-06-01T13:00:09.710Z,9.43
2023-06-01T13:01:09.653Z,8.62
2023-06-01T13:02:09.604Z,8.71
2023-06-01T13:03:09.614Z,7.80
2023-06-01T13:04:09.637Z,7.06
2023-06-01T13:05:09.444Z,6.49
2023-06-01T13:06:09.357Z,6.47
2023-06-01T13:07:09.303Z,6.18
2023-06-01T13:08:09.246Z,5.67
2023-06-01T13:09:09.200Z,5.67
2023-06-01T13:10:09.124Z,5.66
2023-06-01T13:12:09.007Z,6.14
2023-06-01T13:13:08.957Z,6.47
2023-06-01T13:14:08.902Z,6.50
2023-06-01T13:15:08.845Z,7.18